Chara, Russia
Current Conditions -  °F | °C
As of 10:00 PM on Friday 24 Oct 2014 (Local Time) from UIAA Reporting Station
Broken Clouds Broken Clouds  
Wind Chill: 30°   Ceiling: 10000
Heat Index: 37°   Visibility: 6mi
Dew Point: 28°   Wind: 11mph
Humidity: 70%   Direction: 230°SW
Pressure: 29.71"   Gusts: NA
Location:  56.91°N, 118.26°E
Report Text: UIAA 241300Z 23005MPS 9999 SCT050CB BKN100 03/M02 Q1006 NOSIGRMK QFE696 29CLRD70
Loading
Personal Weather Stations






























Interactive Weather Map
Tropical Storm Tracking
New forecast layout! Learn more

10-Day Weather Forecast

Advertisements
Track Severe Weather on mobile